FOON/MVB METAR and TAF weather

Enter ICAO airport designator
Station Type Date Time Source
FOON METAR 2020/08/10 18:00 UTC NOAA

FOON 101800Z 21006KT 170V240 9000 FEW012 OVC026 24/20 Q1014


Station Type Date Time Source
FOON Decoded METAR 2020/08/10 18:00 UTC NOAA

Franceville / Mvengue, Gabon (FOON) 01-39S 013-26E
Aug 10, 2020 - 02:00 PM EDT / 2020.08.10 1800 UTC
Wind: from the SSW (210 degrees) at 7 MPH (6 KT) (direction variable):0
Visibility: 5 mile(s):0
Sky conditions: overcast
Temperature: 75 F (24 C)
Dew Point: 68 F (20 C)
Relative Humidity: 78%
Pressure (altimeter): 29.94 in. Hg (1014 hPa)
ob: FOON 101800Z 21006KT 170V240 9000 FEW012 OVC026 24/20 Q1014
cycle: 18

Station Type Date Time Source
FOON TAF 2012/02/17 18:21 UTC NOAA

TAF TAF FOON 151600Z 1518/1618 20004KT 9999 BKN006
TEMPO 1603/1607 0200 FG OVC002
BECMG 1612/1614 TS SCT015 FEW020CB BKN030

Example: see airport list